Time;durP1;ratioP1;P1;durP2;ratioP2;P2;SDS_P1;SDS_P2;PMS_P1;PMS_P2;Temp;Humidity;BMP_temperature;BMP_pressure;BME280_temperature;BME280_humidity;BME280_pressure;Samples;Min_cycle;Max_cycle;Signal;HPM_P1;HPM_P2
2021/01/28 00:01:08;;;;;;;26.63;14.97;;;;;;;;;;5072524;28;20221;-73
2021/01/28 00:04:12;;;;;;;28.27;14.93;;;;;;;;;;5071459;28;20260;-73
2021/01/28 00:07:18;;;;;;;30.40;15.73;;;;;;;;;;5071558;28;20225;-73
2021/01/28 00:10:23;;;;;;;28.07;15.70;;;;;;;;;;5083053;28;20206;-73
2021/01/28 00:13:28;;;;;;;30.40;16.23;;;;;;;;;;5063986;28;20225;-77
2021/01/28 00:16:33;;;;;;;30.70;15.77;;;;;;;;;;5071858;28;20671;-77
2021/01/28 00:19:37;;;;;;;33.30;16.20;;;;;;;;;;5064060;28;20256;-73
2021/01/28 00:22:43;;;;;;;28.17;15.50;;;;;;;;;;5063613;28;20725;-73
2021/01/28 00:25:48;;;;;;;34.10;17.30;;;;;;;;;;5071065;28;20685;-73
2021/01/28 00:28:54;;;;;;;34.27;17.20;;;;;;;;;;5075705;28;20773;-73
2021/01/28 00:31:58;;;;;;;30.60;15.73;;;;;;;;;;5070788;28;20261;-74
2021/01/28 00:35:04;;;;;;;29.83;16.33;;;;;;;;;;5083403;28;20328;-74
2021/01/28 00:38:11;;;;;;;29.83;16.20;;;;;;;;;;5083002;28;20209;-77
2021/01/28 00:41:16;;;;;;;29.33;16.03;;;;;;;;;;5082903;28;20218;-79
2021/01/28 00:44:21;;;;;;;32.87;15.93;;;;;;;;;;5073394;28;20206;-77
2021/01/28 00:47:28;;;;;;;28.50;16.07;;;;;;;;;;5084464;28;20248;-78
2021/01/28 00:50:33;;;;;;;28.47;15.23;;;;;;;;;;5062866;28;20736;-73
2021/01/28 00:53:39;;;;;;;34.13;17.17;;;;;;;;;;5063002;28;20269;-74
2021/01/28 00:56:44;;;;;;;32.13;17.03;;;;;;;;;;5070493;28;20279;-74
2021/01/28 00:59:49;;;;;;;32.30;17.37;;;;;;;;;;5070359;28;20249;-74
2021/01/28 01:02:54;;;;;;;32.67;16.33;;;;;;;;;;5070716;28;20234;-74
2021/01/28 01:05:58;;;;;;;32.77;16.93;;;;;;;;;;5082331;28;20655;-74
2021/01/28 01:09:04;;;;;;;29.20;16.17;;;;;;;;;;5070614;28;20261;-74
2021/01/28 01:12:30;;;;;;;31.27;16.57;;;;;;;;;;5081994;28;20229;-75
2021/01/28 01:15:35;;;;;;;40.17;18.17;;;;;;;;;;5068129;28;20229;-77
2021/01/28 01:18:40;;;;;;;39.30;18.47;;;;;;;;;;5082387;28;20218;-78
2021/01/28 01:21:45;;;;;;;34.47;18.63;;;;;;;;;;5070565;28;20280;-72
2021/01/28 01:24:58;;;;;;;32.57;18.30;;;;;;;;;;5070311;28;20302;-74
2021/01/28 01:28:02;;;;;;;40.60;19.10;;;;;;;;;;5070472;28;20243;-74
2021/01/28 01:31:29;;;;;;;37.27;18.30;;;;;;;;;;5064975;28;20206;-74
2021/01/28 01:34:34;;;;;;;34.23;18.67;;;;;;;;;;5063764;28;20213;-74
2021/01/28 01:37:45;;;;;;;41.17;19.03;;;;;;;;;;5064781;28;20269;-75
2021/01/28 01:40:53;;;;;;;34.60;18.87;;;;;;;;;;5065317;28;20643;-74
2021/01/28 01:43:58;;;;;;;42.63;21.23;;;;;;;;;;5084813;28;20206;-74
2021/01/28 01:47:14;;;;;;;44.30;20.97;;;;;;;;;;5070526;28;20209;-74
2021/01/28 01:50:34;;;;;;;45.37;22.23;;;;;;;;;;5072213;28;20713;-75
2021/01/28 01:53:41;;;;;;;45.47;22.03;;;;;;;;;;5073988;28;20733;-74
2021/01/28 01:56:49;;;;;;;45.77;22.37;;;;;;;;;;5074164;28;20202;-74
2021/01/28 01:59:55;;;;;;;43.33;21.97;;;;;;;;;;5073784;28;20607;-74
2021/01/28 02:03:38;;;;;;;47.10;23.27;;;;;;;;;;5073112;28;20844;-75
2021/01/28 02:07:05;;;;;;;46.43;22.73;;;;;;;;;;5071677;28;20244;-75
2021/01/28 02:10:46;;;;;;;43.50;22.23;;;;;;;;;;5026539;28;20211;-73
2021/01/28 02:14:08;;;;;;;46.57;23.23;;;;;;;;;;5069059;28;20325;-78
2021/01/28 02:17:32;;;;;;;41.57;21.60;;;;;;;;;;5071544;28;20218;-78
2021/01/28 02:20:59;;;;;;;45.30;21.83;;;;;;;;;;5075502;28;20198;-78
2021/01/28 02:24:19;;;;;;;51.20;23.57;;;;;;;;;;5086384;28;20616;-78
2021/01/28 02:27:26;;;;;;;49.10;22.60;;;;;;;;;;5074696;28;20190;-78
2021/01/28 02:31:07;;;;;;;44.77;22.30;;;;;;;;;;5080023;28;20286;-73
2021/01/28 02:34:12;;;;;;;40.03;21.17;;;;;;;;;;5073563;28;20198;-72
2021/01/28 02:37:33;;;;;;;43.60;21.77;;;;;;;;;;5073440;28;20198;-73
2021/01/28 02:40:50;;;;;;;46.83;22.40;;;;;;;;;;5069141;28;20625;-78
2021/01/28 02:43:59;;;;;;;41.03;22.03;;;;;;;;;;5066757;28;20264;-74
2021/01/28 02:47:23;;;;;;;48.23;22.10;;;;;;;;;;5073988;28;20572;-74
2021/01/28 02:50:54;;;;;;;43.50;22.00;;;;;;;;;;5073152;28;20202;-74
2021/01/28 02:53:59;;;;;;;41.30;22.13;;;;;;;;;;5072124;28;20202;-73
2021/01/28 02:57:03;;;;;;;45.17;22.37;;;;;;;;;;5076307;28;20202;-73
2021/01/28 03:00:11;;;;;;;44.67;21.47;;;;;;;;;;5072173;28;20230;-73
2021/01/28 03:03:16;;;;;;;43.13;21.23;;;;;;;;;;5072132;28;20276;-73
2021/01/28 03:06:29;;;;;;;43.23;22.37;;;;;;;;;;5065064;28;20198;-73
2021/01/28 03:09:36;;;;;;;47.10;22.60;;;;;;;;;;5065402;28;20276;-73
2021/01/28 03:13:03;;;;;;;43.20;21.33;;;;;;;;;;5069796;28;20234;-73
2021/01/28 03:16:38;;;;;;;44.30;21.77;;;;;;;;;;5065387;28;20252;-73
2021/01/28 03:19:49;;;;;;;42.73;21.27;;;;;;;;;;5072029;28;20233;-73
2021/01/28 03:22:57;;;;;;;43.53;20.07;;;;;;;;;;5066492;28;20651;-72
2021/01/28 03:26:22;;;;;;;41.00;20.70;;;;;;;;;;5073296;28;20256;-77
2021/01/28 03:29:27;;;;;;;41.10;21.00;;;;;;;;;;5084089;28;20236;-73
2021/01/28 03:32:33;;;;;;;41.50;21.33;;;;;;;;;;5083749;28;20325;-72
2021/01/28 03:35:37;;;;;;;45.50;22.70;;;;;;;;;;5068886;28;20267;-72
2021/01/28 03:38:47;;;;;;;43.57;22.50;;;;;;;;;;5069637;28;20303;-77
2021/01/28 03:41:52;;;;;;;41.17;21.03;;;;;;;;;;5069553;28;20229;-77
2021/01/28 03:44:58;;;;;;;39.63;21.40;;;;;;;;;;5083563;28;20709;-73
2021/01/28 03:48:08;;;;;;;46.87;22.57;;;;;;;;;;5071516;28;20210;-73
2021/01/28 03:51:30;;;;;;;42.13;21.80;;;;;;;;;;5071784;28;20202;-73
2021/01/28 03:55:13;;;;;;;45.97;22.80;;;;;;;;;;5062152;28;20241;-72
2021/01/28 03:58:21;;;;;;;42.37;22.10;;;;;;;;;;5069407;28;20277;-72
2021/01/28 04:01:45;;;;;;;47.63;22.17;;;;;;;;;;5072366;28;20280;-73
2021/01/28 04:05:11;;;;;;;43.23;22.23;;;;;;;;;;5076926;28;20295;-73
2021/01/28 04:08:35;;;;;;;41.93;21.27;;;;;;;;;;5077155;28;20218;-73
2021/01/28 04:12:15;;;;;;;50.63;23.63;;;;;;;;;;5017145;28;20251;-73
2021/01/28 04:15:40;;;;;;;48.57;23.37;;;;;;;;;;5070984;28;20222;-73
2021/01/28 04:18:47;;;;;;;50.43;24.83;;;;;;;;;;5067911;28;20222;-73
2021/01/28 04:22:13;;;;;;;53.37;25.63;;;;;;;;;;5069820;28;20262;-73
2021/01/28 04:25:22;;;;;;;51.60;25.27;;;;;;;;;;5068211;28;20195;-73
2021/01/28 04:28:28;;;;;;;56.20;26.53;;;;;;;;;;5079651;28;20197;-73
2021/01/28 04:31:53;;;;;;;53.77;25.93;;;;;;;;;;5071036;28;20746;-73
2021/01/28 04:35:19;;;;;;;53.90;26.07;;;;;;;;;;5066514;28;20267;-77
2021/01/28 04:38:26;;;;;;;53.30;26.63;;;;;;;;;;5066513;28;20253;-77
2021/01/28 04:41:38;;;;;;;51.37;25.40;;;;;;;;;;5067675;28;20199;-77
2021/01/28 04:44:49;;;;;;;54.37;26.60;;;;;;;;;;5071046;28;20205;-77
2021/01/28 04:48:04;;;;;;;53.30;26.97;;;;;;;;;;5071693;28;20229;-77
2021/01/28 04:51:39;;;;;;;52.50;26.23;;;;;;;;;;5073225;28;20209;-74
2021/01/28 04:54:45;;;;;;;51.60;25.27;;;;;;;;;;5084875;28;20694;-74
2021/01/28 04:58:06;;;;;;;56.37;26.43;;;;;;;;;;5065497;28;20321;-73
2021/01/28 05:01:22;;;;;;;58.00;26.53;;;;;;;;;;5083692;28;20210;-74
2021/01/28 05:04:57;;;;;;;59.77;26.50;;;;;;;;;;5065808;28;20218;-73
2021/01/28 05:08:35;;;;;;;57.33;27.33;;;;;;;;;;5082228;28;20217;-73
2021/01/28 05:11:59;;;;;;;56.30;27.10;;;;;;;;;;5071202;28;20275;-73
2021/01/28 05:15:33;;;;;;;62.07;28.43;;;;;;;;;;5055467;28;20206;-73
2021/01/28 05:18:58;;;;;;;62.63;28.83;;;;;;;;;;5068211;28;20246;-77
2021/01/28 05:22:44;;;;;;;66.10;28.20;;;;;;;;;;5063255;28;20272;-77
2021/01/28 05:26:03;;;;;;;68.27;29.57;;;;;;;;;;5070623;28;20218;-77
2021/01/28 05:29:21;;;;;;;68.87;30.30;;;;;;;;;;5070317;28;20764;-73
2021/01/28 05:32:39;;;;;;;61.80;26.97;;;;;;;;;;5070049;28;20280;-73
2021/01/28 05:36:14;;;;;;;62.40;28.93;;;;;;;;;;5070020;28;20228;-73
2021/01/28 05:39:35;;;;;;;68.23;31.33;;;;;;;;;;5074376;28;20230;-73
2021/01/28 05:42:41;;;;;;;68.07;29.67;;;;;;;;;;5063040;28;20233;-73
2021/01/28 05:45:46;;;;;;;65.20;30.20;;;;;;;;;;5070132;28;20214;-77
2021/01/28 05:49:26;;;;;;;69.03;29.40;;;;;;;;;;5069747;28;20191;-77
2021/01/28 05:52:39;;;;;;;67.50;30.27;;;;;;;;;;5070319;28;20284;-77
2021/01/28 05:55:50;;;;;;;72.87;30.10;;;;;;;;;;5069954;28;20253;-77
2021/01/28 05:59:06;;;;;;;71.57;30.40;;;;;;;;;;5070045;28;20302;-77
2021/01/28 06:02:23;;;;;;;67.17;30.43;;;;;;;;;;5062781;28;20222;-73
2021/01/28 06:06:04;;;;;;;70.80;29.17;;;;;;;;;;5069303;28;20648;-73
2021/01/28 06:09:27;;;;;;;67.60;30.47;;;;;;;;;;5059514;28;20257;-73
2021/01/28 06:12:53;;;;;;;68.33;30.50;;;;;;;;;;5069368;28;20218;-73
2021/01/28 06:16:01;;;;;;;66.03;27.67;;;;;;;;;;5070088;28;20254;-77
2021/01/28 06:19:34;;;;;;;67.73;29.27;;;;;;;;;;5070821;28;20269;-77
2021/01/28 06:22:59;;;;;;;73.17;29.43;;;;;;;;;;5076677;28;20252;-77
2021/01/28 06:26:40;;;;;;;70.00;30.43;;;;;;;;;;5083302;28;20260;-77
2021/01/28 06:30:07;;;;;;;65.67;29.87;;;;;;;;;;5104221;28;20737;-77
2021/01/28 06:33:24;;;;;;;70.63;29.07;;;;;;;;;;5072678;28;20230;-76
2021/01/28 06:37:09;;;;;;;69.60;29.80;;;;;;;;;;5074153;28;20238;-77
2021/01/28 06:40:32;;;;;;;68.50;28.67;;;;;;;;;;5063362;28;20226;-77
2021/01/28 06:44:16;;;;;;;70.40;28.77;;;;;;;;;;5067358;28;20203;-78
2021/01/28 06:47:35;;;;;;;66.03;29.17;;;;;;;;;;5074084;28;20198;-78
2021/01/28 06:51:03;;;;;;;66.07;28.47;;;;;;;;;;5056788;28;20260;-78
2021/01/28 06:54:18;;;;;;;65.10;29.70;;;;;;;;;;5065709;28;20877;-77
2021/01/28 06:58:02;;;;;;;72.10;32.00;;;;;;;;;;5061065;28;20213;-74
2021/01/28 07:01:20;;;;;;;77.37;31.87;;;;;;;;;;5064711;28;20238;-72
2021/01/28 07:04:32;;;;;;;70.07;29.63;;;;;;;;;;5066428;28;20209;-77
2021/01/28 07:07:46;;;;;;;66.30;28.47;;;;;;;;;;5070265;28;20690;-78
2021/01/28 07:11:04;;;;;;;67.53;28.57;;;;;;;;;;5088461;28;20214;-73
2021/01/28 07:14:35;;;;;;;67.13;28.67;;;;;;;;;;5065593;28;20221;-75
2021/01/28 07:17:58;;;;;;;65.13;28.93;;;;;;;;;;5069577;28;20240;-78
2021/01/28 07:21:05;;;;;;;70.10;29.27;;;;;;;;;;5069041;28;20264;-75
2021/01/28 07:24:13;;;;;;;69.63;29.20;;;;;;;;;;5068567;28;20218;-75
2021/01/28 07:27:19;;;;;;;66.67;30.13;;;;;;;;;;5071048;28;20233;-79
2021/01/28 07:30:36;;;;;;;73.27;29.60;;;;;;;;;;5072036;28;20230;-76
2021/01/28 07:33:42;;;;;;;66.67;29.17;;;;;;;;;;5069350;28;20648;-73
2021/01/28 07:37:26;;;;;;;65.33;28.43;;;;;;;;;;5069531;28;20272;-73
2021/01/28 07:40:57;;;;;;;67.83;29.83;;;;;;;;;;5068543;28;20636;-73
2021/01/28 07:44:47;;;;;;;63.17;27.93;;;;;;;;;;5069932;28;20214;-76
2021/01/28 07:48:25;;;;;;;74.43;31.90;;;;;;;;;;5069270;28;20205;-73
2021/01/28 07:52:28;;;;;;;83.93;39.57;;;;;;;;;;5068688;28;20225;-73
2021/01/28 07:55:40;;;;;;;70.60;31.07;;;;;;;;;;5068926;28;20689;-73
2021/01/28 07:58:48;;;;;;;65.47;28.67;;;;;;;;;;5068892;28;20292;-76
2021/01/28 08:01:54;;;;;;;65.43;29.60;;;;;;;;;;5067466;28;20888;-75
2021/01/28 08:05:00;;;;;;;70.23;29.27;;;;;;;;;;5068151;28;20637;-73
2021/01/28 08:08:07;;;;;;;65.83;28.27;;;;;;;;;;5068715;28;20275;-73
2021/01/28 08:11:17;;;;;;;62.67;28.27;;;;;;;;;;5067704;28;20199;-73
2021/01/28 08:14:22;;;;;;;68.67;29.33;;;;;;;;;;5066453;28;20685;-73
2021/01/28 08:17:29;;;;;;;66.37;29.27;;;;;;;;;;5067502;28;20214;-77
2021/01/28 08:20:34;;;;;;;67.73;28.77;;;;;;;;;;5067337;28;20328;-74
2021/01/28 08:23:40;;;;;;;69.43;29.27;;;;;;;;;;5066537;28;20237;-73
2021/01/28 08:26:45;;;;;;;64.63;28.43;;;;;;;;;;5066969;28;20251;-73
2021/01/28 08:30:01;;;;;;;72.70;28.87;;;;;;;;;;5067604;28;20264;-77
2021/01/28 08:33:06;;;;;;;62.27;27.47;;;;;;;;;;5066340;28;20287;-74
2021/01/28 08:36:20;;;;;;;63.40;28.80;;;;;;;;;;5064102;28;20213;-73
2021/01/28 08:39:27;;;;;;;64.70;29.30;;;;;;;;;;5067336;28;20225;-76
2021/01/28 08:42:32;;;;;;;69.23;29.80;;;;;;;;;;5065606;28;20304;-74
2021/01/28 08:45:38;;;;;;;69.87;29.80;;;;;;;;;;5065778;28;20198;-74
2021/01/28 08:48:42;;;;;;;68.27;29.90;;;;;;;;;;5074043;28;20221;-74
2021/01/28 08:51:51;;;;;;;72.50;30.33;;;;;;;;;;5079196;28;20699;-77
2021/01/28 08:54:55;;;;;;;68.07;30.00;;;;;;;;;;5075073;28;20233;-74
2021/01/28 08:58:03;;;;;;;64.07;28.87;;;;;;;;;;5067398;28;20697;-74
2021/01/28 09:01:08;;;;;;;67.33;29.80;;;;;;;;;;5067212;28;20519;-76
2021/01/28 09:04:15;;;;;;;64.67;28.53;;;;;;;;;;5068927;28;20268;-76
2021/01/28 09:07:37;;;;;;;69.80;29.73;;;;;;;;;;5067029;28;20760;-76
2021/01/28 09:10:44;;;;;;;63.03;29.27;;;;;;;;;;5066055;28;20210;-75
2021/01/28 09:14:05;;;;;;;65.60;28.60;;;;;;;;;;5065834;28;20238;-72
2021/01/28 09:17:17;;;;;;;72.23;28.70;;;;;;;;;;5084840;28;20229;-73
2021/01/28 09:20:23;;;;;;;65.50;28.20;;;;;;;;;;5064883;28;20701;-72
2021/01/28 09:23:28;;;;;;;64.47;27.07;;;;;;;;;;5065081;28;20234;-73
2021/01/28 09:26:35;;;;;;;62.03;26.90;;;;;;;;;;5065349;28;20230;-77
2021/01/28 09:29:40;;;;;;;66.10;27.23;;;;;;;;;;5063965;28;20285;-72
2021/01/28 09:32:45;;;;;;;60.23;25.67;;;;;;;;;;5065439;28;20234;-72
2021/01/28 09:36:00;;;;;;;61.17;27.20;;;;;;;;;;5066076;28;20569;-75
2021/01/28 09:39:07;;;;;;;56.30;24.57;;;;;;;;;;5065583;28;20246;-73
2021/01/28 09:42:19;;;;;;;65.00;27.73;;;;;;;;;;5066797;28;20241;-72
2021/01/28 09:45:26;;;;;;;60.53;27.67;;;;;;;;;;5064930;28;20254;-72
2021/01/28 09:48:31;;;;;;;64.57;28.17;;;;;;;;;;5066153;28;20229;-75
2021/01/28 09:51:36;;;;;;;62.20;28.20;;;;;;;;;;5068700;28;20648;-76
2021/01/28 09:54:41;;;;;;;64.27;28.90;;;;;;;;;;5064923;28;20210;-72
2021/01/28 09:57:47;;;;;;;70.00;28.70;;;;;;;;;;5063535;28;20757;-75
2021/01/28 10:00:52;;;;;;;59.33;26.57;;;;;;;;;;5063847;28;20275;-75
2021/01/28 10:03:56;;;;;;;62.43;26.53;;;;;;;;;;5067553;28;20770;-75
2021/01/28 10:07:01;;;;;;;68.07;27.40;;;;;;;;;;5070275;28;20210;-75
2021/01/28 10:10:06;;;;;;;59.83;27.40;;;;;;;;;;5070258;28;20570;-74
2021/01/28 10:13:13;;;;;;;63.80;27.67;;;;;;;;;;5068750;28;20322;-75
2021/01/28 10:16:18;;;;;;;64.40;28.23;;;;;;;;;;5069484;28;20214;-75
2021/01/28 10:19:22;;;;;;;63.70;27.73;;;;;;;;;;5068749;28;20737;-72
2021/01/28 10:22:27;;;;;;;61.97;28.30;;;;;;;;;;5070624;28;20237;-73
2021/01/28 10:25:32;;;;;;;63.93;26.60;;;;;;;;;;5067188;28;20195;-72
2021/01/28 10:28:37;;;;;;;69.47;28.07;;;;;;;;;;5069407;28;20222;-73
2021/01/28 10:31:42;;;;;;;64.43;27.00;;;;;;;;;;5068443;28;20221;-72
2021/01/28 10:34:47;;;;;;;62.53;28.10;;;;;;;;;;5068232;28;20268;-74
2021/01/28 10:37:52;;;;;;;67.07;28.57;;;;;;;;;;5069876;28;20210;-74
2021/01/28 10:40:57;;;;;;;60.73;27.03;;;;;;;;;;5067852;28;20611;-74
2021/01/28 10:44:02;;;;;;;67.43;29.70;;;;;;;;;;5067079;28;20606;-74
2021/01/28 10:47:07;;;;;;;66.80;28.67;;;;;;;;;;5065281;28;20218;-74
2021/01/28 10:50:12;;;;;;;61.73;27.80;;;;;;;;;;5070668;28;20209;-72
2021/01/28 10:53:16;;;;;;;61.43;27.10;;;;;;;;;;5066462;28;20241;-71
2021/01/28 10:56:22;;;;;;;61.47;26.40;;;;;;;;;;5067169;28;20261;-72
2021/01/28 10:59:27;;;;;;;63.13;28.07;;;;;;;;;;5068626;28;20285;-71
2021/01/28 11:02:32;;;;;;;63.73;27.17;;;;;;;;;;5069847;28;20234;-72
2021/01/28 11:05:37;;;;;;;60.10;28.53;;;;;;;;;;5071680;28;20600;-73
2021/01/28 11:08:42;;;;;;;65.77;28.93;;;;;;;;;;5068321;28;20218;-72
2021/01/28 11:11:47;;;;;;;68.57;27.67;;;;;;;;;;5067775;28;20579;-72
2021/01/28 11:14:53;;;;;;;65.03;27.63;;;;;;;;;;5085409;28;20222;-71
2021/01/28 11:17:58;;;;;;;63.60;27.13;;;;;;;;;;5068033;28;20324;-71
2021/01/28 11:21:03;;;;;;;63.70;26.93;;;;;;;;;;5070579;28;20269;-73
2021/01/28 11:24:07;;;;;;;62.50;28.07;;;;;;;;;;5069135;28;20214;-73
2021/01/28 11:27:12;;;;;;;67.40;29.43;;;;;;;;;;5068976;28;20284;-74
2021/01/28 11:30:19;;;;;;;66.97;28.87;;;;;;;;;;5068146;28;20205;-73
2021/01/28 11:33:24;;;;;;;69.53;29.73;;;;;;;;;;5067690;28;20780;-71
2021/01/28 11:36:29;;;;;;;71.93;31.00;;;;;;;;;;5069930;28;20763;-73
2021/01/28 11:39:36;;;;;;;69.57;30.90;;;;;;;;;;5079856;28;20283;-73
2021/01/28 11:42:41;;;;;;;71.87;30.13;;;;;;;;;;5067940;28;20603;-74
2021/01/28 11:45:47;;;;;;;72.97;30.37;;;;;;;;;;5066504;28;20226;-73
2021/01/28 11:48:51;;;;;;;70.83;27.70;;;;;;;;;;5067107;28;20586;-75
2021/01/28 11:51:56;;;;;;;67.23;29.37;;;;;;;;;;5068541;28;20292;-73
2021/01/28 11:55:01;;;;;;;70.17;29.23;;;;;;;;;;5067891;28;20226;-73
2021/01/28 11:58:05;;;;;;;68.53;29.07;;;;;;;;;;5067653;28;20242;-74
2021/01/28 12:01:11;;;;;;;71.47;28.40;;;;;;;;;;5069259;28;20195;-74
2021/01/28 12:04:16;;;;;;;61.73;26.83;;;;;;;;;;5069044;28;20202;-75
2021/01/28 12:07:21;;;;;;;62.67;27.07;;;;;;;;;;5067180;28;20199;-75
2021/01/28 12:10:26;;;;;;;65.00;28.93;;;;;;;;;;5068718;28;20240;-78
2021/01/28 12:13:31;;;;;;;65.30;27.33;;;;;;;;;;5068726;28;20302;-73
2021/01/28 12:16:37;;;;;;;90.70;33.30;;;;;;;;;;5068155;28;20260;-73
2021/01/28 12:19:42;;;;;;;71.97;29.73;;;;;;;;;;5068193;28;20217;-73
2021/01/28 12:22:47;;;;;;;61.03;28.03;;;;;;;;;;5068448;28;21027;-78
2021/01/28 12:25:51;;;;;;;73.10;29.53;;;;;;;;;;5066721;28;20256;-78
2021/01/28 12:28:58;;;;;;;62.60;28.00;;;;;;;;;;5067346;28;20201;-74
2021/01/28 12:32:04;;;;;;;56.83;26.27;;;;;;;;;;5064789;28;20269;-76
2021/01/28 12:35:09;;;;;;;62.33;28.53;;;;;;;;;;5067425;28;20241;-76
2021/01/28 12:38:14;;;;;;;67.57;29.03;;;;;;;;;;5069597;28;20302;-74
2021/01/28 12:41:19;;;;;;;69.50;29.80;;;;;;;;;;5077581;28;20410;-75
2021/01/28 12:44:25;;;;;;;80.60;30.57;;;;;;;;;;5076031;28;20210;-76
2021/01/28 12:47:30;;;;;;;74.23;29.90;;;;;;;;;;5079210;28;20744;-77
2021/01/28 12:50:35;;;;;;;78.67;29.83;;;;;;;;;;5082485;28;20845;-78
2021/01/28 12:53:40;;;;;;;71.67;29.20;;;;;;;;;;5089405;28;20238;-78
2021/01/28 12:56:46;;;;;;;78.83;31.10;;;;;;;;;;5075721;28;20605;-78
2021/01/28 12:59:50;;;;;;;80.03;32.03;;;;;;;;;;5065564;28;20221;-79
2021/01/28 13:02:56;;;;;;;75.90;30.17;;;;;;;;;;5066483;28;20340;-74
2021/01/28 13:06:01;;;;;;;67.40;29.10;;;;;;;;;;5064474;28;20763;-74
2021/01/28 13:09:06;;;;;;;65.50;29.23;;;;;;;;;;5065875;28;20256;-73
2021/01/28 13:12:11;;;;;;;66.13;28.63;;;;;;;;;;5066737;28;20307;-73
2021/01/28 13:15:18;;;;;;;65.57;29.53;;;;;;;;;;5068967;28;20257;-73
2021/01/28 13:18:24;;;;;;;63.07;27.60;;;;;;;;;;5066544;28;20209;-72
2021/01/28 13:21:28;;;;;;;68.03;29.20;;;;;;;;;;5065604;28;20214;-72
2021/01/28 13:24:33;;;;;;;67.77;28.43;;;;;;;;;;5067329;28;20220;-73
2021/01/28 13:27:38;;;;;;;58.60;26.47;;;;;;;;;;5064807;28;20333;-73
2021/01/28 13:30:43;;;;;;;58.07;24.23;;;;;;;;;;5065139;28;20899;-72
2021/01/28 13:33:48;;;;;;;59.50;26.07;;;;;;;;;;5066003;28;20229;-73
2021/01/28 13:36:54;;;;;;;53.20;23.37;;;;;;;;;;5067761;28;20214;-73
2021/01/28 13:39:59;;;;;;;51.53;22.90;;;;;;;;;;5068418;28;20233;-73
2021/01/28 13:43:04;;;;;;;54.17;23.23;;;;;;;;;;5069607;28;20229;-72
2021/01/28 13:46:09;;;;;;;56.10;21.63;;;;;;;;;;5067655;28;20271;-72
2021/01/28 13:49:14;;;;;;;51.53;22.97;;;;;;;;;;5069887;28;20206;-75
2021/01/28 13:52:19;;;;;;;44.90;20.27;;;;;;;;;;5069801;28;20732;-74
2021/01/28 13:55:24;;;;;;;45.23;19.30;;;;;;;;;;5068886;28;20284;-74
2021/01/28 13:58:28;;;;;;;44.77;20.50;;;;;;;;;;5070058;28;20222;-74
2021/01/28 14:01:34;;;;;;;41.37;19.00;;;;;;;;;;5069526;28;20210;-74
2021/01/28 14:04:39;;;;;;;46.73;23.03;;;;;;;;;;5069975;28;20260;-74
2021/01/28 14:07:44;;;;;;;32.00;14.87;;;;;;;;;;5068722;28;20251;-74
2021/01/28 14:10:48;;;;;;;45.73;18.63;;;;;;;;;;5068536;28;20756;-74
2021/01/28 14:13:53;;;;;;;36.53;16.77;;;;;;;;;;5071006;28;20262;-74
2021/01/28 14:16:58;;;;;;;37.00;14.30;;;;;;;;;;5067341;28;20237;-74
2021/01/28 14:20:05;;;;;;;37.07;16.03;;;;;;;;;;5069519;28;20605;-74
2021/01/28 14:23:10;;;;;;;42.77;17.47;;;;;;;;;;5068295;28;20270;-74
2021/01/28 14:26:15;;;;;;;37.47;15.60;;;;;;;;;;5070089;28;20239;-73
2021/01/28 14:29:19;;;;;;;37.83;15.10;;;;;;;;;;5067315;28;20210;-77
2021/01/28 14:32:24;;;;;;;35.67;14.77;;;;;;;;;;5070135;28;20245;-77
2021/01/28 14:35:29;;;;;;;34.53;14.40;;;;;;;;;;5082634;28;20293;-77
2021/01/28 14:38:34;;;;;;;39.23;14.97;;;;;;;;;;5081709;28;20222;-78
2021/01/28 14:41:39;;;;;;;30.83;13.33;;;;;;;;;;5082876;28;20650;-77
2021/01/28 14:44:44;;;;;;;31.23;15.73;;;;;;;;;;5066833;28;20214;-72
2021/01/28 14:47:48;;;;;;;32.40;13.17;;;;;;;;;;5068418;28;20210;-78
2021/01/28 14:50:54;;;;;;;36.53;16.60;;;;;;;;;;5067437;28;20225;-74
2021/01/28 14:53:59;;;;;;;33.20;15.13;;;;;;;;;;5068883;28;20257;-72
2021/01/28 14:57:04;;;;;;;48.53;18.53;;;;;;;;;;5068116;28;20348;-73
2021/01/28 15:00:10;;;;;;;46.50;17.80;;;;;;;;;;5068875;28;20265;-72
2021/01/28 15:03:15;;;;;;;27.53;12.60;;;;;;;;;;5069185;28;20296;-73
2021/01/28 15:06:21;;;;;;;28.07;12.23;;;;;;;;;;5070147;28;20268;-74
2021/01/28 15:09:26;;;;;;;28.37;12.13;;;;;;;;;;5067277;28;20237;-75
2021/01/28 15:12:30;;;;;;;32.00;14.23;;;;;;;;;;5067068;28;20257;-78
2021/01/28 15:15:35;;;;;;;38.97;18.93;;;;;;;;;;5080612;28;20217;-77
2021/01/28 15:18:40;;;;;;;28.53;12.63;;;;;;;;;;5081157;28;20206;-79
2021/01/28 15:21:46;;;;;;;27.70;11.50;;;;;;;;;;5073708;28;20206;-75
2021/01/28 15:24:52;;;;;;;27.50;11.87;;;;;;;;;;5068444;28;20350;-75
2021/01/28 15:27:57;;;;;;;29.97;12.43;;;;;;;;;;5068159;28;20264;-76
2021/01/28 15:31:01;;;;;;;27.93;11.90;;;;;;;;;;5068333;28;20206;-76
2021/01/28 15:34:06;;;;;;;29.23;12.67;;;;;;;;;;5065795;28;20252;-76
2021/01/28 15:37:14;;;;;;;27.90;13.80;;;;;;;;;;5066287;28;20222;-76
2021/01/28 15:40:18;;;;;;;31.47;14.07;;;;;;;;;;5068407;28;20264;-76
2021/01/28 15:43:24;;;;;;;31.93;13.63;;;;;;;;;;5069390;28;20260;-78
2021/01/28 15:46:28;;;;;;;238.83;103.17;;;;;;;;;;5067759;28;20214;-74
2021/01/28 15:49:33;;;;;;;29.03;12.77;;;;;;;;;;5066704;28;20702;-73
2021/01/28 15:52:38;;;;;;;27.33;12.57;;;;;;;;;;5067000;28;20340;-75
2021/01/28 15:55:44;;;;;;;31.83;12.60;;;;;;;;;;5067921;28;20201;-79
2021/01/28 15:58:49;;;;;;;28.17;12.13;;;;;;;;;;5069238;28;20753;-74
2021/01/28 16:01:54;;;;;;;30.90;12.83;;;;;;;;;;5063537;28;20252;-77
2021/01/28 16:04:59;;;;;;;32.43;13.87;;;;;;;;;;5068013;28;20254;-74
2021/01/28 16:08:06;;;;;;;31.63;14.90;;;;;;;;;;5066515;28;20202;-75
2021/01/28 16:11:11;;;;;;;29.67;12.37;;;;;;;;;;5065826;28;20304;-75
2021/01/28 16:14:16;;;;;;;26.00;12.30;;;;;;;;;;5067349;28;20209;-76
2021/01/28 16:17:21;;;;;;;26.13;12.60;;;;;;;;;;5063190;28;20692;-75
2021/01/28 16:20:26;;;;;;;26.33;12.13;;;;;;;;;;5066554;28;20324;-75
2021/01/28 16:23:32;;;;;;;30.90;13.57;;;;;;;;;;5067912;28;20597;-73
2021/01/28 16:26:36;;;;;;;28.70;12.90;;;;;;;;;;5067061;28;20209;-72
2021/01/28 16:29:41;;;;;;;28.33;12.80;;;;;;;;;;5068187;28;20586;-75
2021/01/28 16:32:45;;;;;;;32.03;14.93;;;;;;;;;;5068021;28;20230;-73
2021/01/28 16:35:50;;;;;;;26.13;12.30;;;;;;;;;;5067298;28;20277;-74
2021/01/28 16:38:58;;;;;;;24.67;12.53;;;;;;;;;;5065633;28;20282;-74
2021/01/28 16:42:06;;;;;;;26.97;12.60;;;;;;;;;;5068351;28;20604;-74
2021/01/28 16:45:12;;;;;;;30.63;14.07;;;;;;;;;;5069003;28;20250;-75
2021/01/28 16:48:16;;;;;;;30.67;14.03;;;;;;;;;;5088969;28;20202;-74
2021/01/28 16:51:22;;;;;;;40.63;16.97;;;;;;;;;;5071763;28;20614;-74
2021/01/28 16:54:28;;;;;;;33.97;14.87;;;;;;;;;;5067849;28;20245;-75
2021/01/28 16:57:33;;;;;;;34.90;14.87;;;;;;;;;;5067709;28;20612;-75
2021/01/28 17:00:38;;;;;;;27.90;12.87;;;;;;;;;;5066470;28;20282;-74
2021/01/28 17:03:42;;;;;;;24.70;11.77;;;;;;;;;;5065174;28;20261;-75
2021/01/28 17:06:47;;;;;;;23.00;11.97;;;;;;;;;;5067413;28;20332;-74
2021/01/28 17:09:53;;;;;;;25.90;12.67;;;;;;;;;;5070524;28;20291;-73
2021/01/28 17:12:58;;;;;;;27.03;13.27;;;;;;;;;;5068411;28;20233;-74
2021/01/28 17:16:02;;;;;;;24.53;12.10;;;;;;;;;;5067780;28;20598;-78
2021/01/28 17:19:07;;;;;;;23.57;11.30;;;;;;;;;;5066797;28;20206;-73
2021/01/28 17:22:11;;;;;;;19.00;9.53;;;;;;;;;;5067211;28;20229;-75
2021/01/28 17:25:19;;;;;;;20.83;10.67;;;;;;;;;;5070402;28;20213;-77
2021/01/28 17:28:23;;;;;;;24.17;10.67;;;;;;;;;;5064684;28;20230;-75
2021/01/28 17:31:29;;;;;;;19.97;10.90;;;;;;;;;;5067320;28;20336;-77
2021/01/28 17:34:34;;;;;;;20.80;10.83;;;;;;;;;;5068592;28;20245;-74
2021/01/28 17:37:39;;;;;;;24.53;11.73;;;;;;;;;;5066340;28;20206;-74
2021/01/28 17:40:45;;;;;;;20.97;11.30;;;;;;;;;;5067770;28;20226;-76
2021/01/28 17:43:49;;;;;;;26.83;12.07;;;;;;;;;;5065557;28;20237;-73
2021/01/28 17:46:54;;;;;;;27.27;12.47;;;;;;;;;;5067979;28;20204;-75
2021/01/28 17:49:58;;;;;;;27.13;12.20;;;;;;;;;;5067528;28;20210;-75
2021/01/28 17:53:04;;;;;;;26.37;12.53;;;;;;;;;;5073556;28;20848;-73
2021/01/28 17:56:11;;;;;;;31.27;13.60;;;;;;;;;;5065018;28;20209;-75
2021/01/28 17:59:18;;;;;;;27.57;13.27;;;;;;;;;;5065888;28;20249;-77
2021/01/28 18:02:23;;;;;;;29.40;15.50;;;;;;;;;;5066045;28;20276;-77
2021/01/28 18:05:28;;;;;;;25.17;12.33;;;;;;;;;;5068363;28;20221;-73
2021/01/28 18:08:33;;;;;;;28.77;13.60;;;;;;;;;;5065881;28;20268;-73
2021/01/28 18:11:40;;;;;;;28.97;13.43;;;;;;;;;;5067427;28;20674;-74
2021/01/28 18:14:45;;;;;;;30.17;14.80;;;;;;;;;;5065974;28;20202;-74
2021/01/28 18:17:49;;;;;;;24.87;12.90;;;;;;;;;;5068301;28;20349;-75
2021/01/28 18:20:54;;;;;;;24.20;12.67;;;;;;;;;;5069452;28;20309;-74
2021/01/28 18:23:58;;;;;;;23.03;11.60;;;;;;;;;;5073385;28;20710;-73
2021/01/28 18:27:05;;;;;;;19.43;10.33;;;;;;;;;;5073987;28;20206;-74